Portada
METAR-TAF:

METAR-TAF

Aeroports :

Sitiawan, Malàisia

latitud: 04-13N, longitud: 100-42E, altitud: 7 m

Observació

L'informe es va fer fa 40 minuts, a les 19:00 UTC
Vent 2 kt amb direcció variable
Temperatura 27°C
Humitat 94%
Pressió 1010 hPa
Visibilitat: 9000 m
Escasses núvols a una alçada de 3200 ft

METAR: WMBA 011900Z VRB02KT 9000 FEW032 27/26 Q1010

Hora: 03:40 (19:40 UTC)


TAF: manca

Observacions i pronòstics meteorològics de més de 4000 aeroports (METAR i TAF).

Les estacions disponibles són els punts grocs i vermells al mapa.

Posi el ratolí al punt desitjat per veure el nom de l'estació.

Feu clic per veure les observacions i els pronòstics meteorològics.

Per canviar el mapa: feu clic els botons verds amb una creu de color negre per apropar; al botó verd amb un guió per allunyar la imatge; o en les fletxes verdes per a mapes adjacents.


METAR-TAF: